sensor_id;sensor_type;location;lat;lon;timestamp;P1;durP1;ratioP1;P2;durP2;ratioP2
48002;SDS011;33768;48.578;11.574;2023-03-01T00:01:32;20.93;;;12.80;;
48002;SDS011;33768;48.578;11.574;2023-03-01T00:04:37;17.97;;;11.80;;
48002;SDS011;33768;48.578;11.574;2023-03-01T00:07:41;20.33;;;12.30;;
48002;SDS011;33768;48.578;11.574;2023-03-01T00:10:45;19.47;;;11.47;;
48002;SDS011;33768;48.578;11.574;2023-03-01T00:13:50;19.63;;;12.67;;
48002;SDS011;33768;48.578;11.574;2023-03-01T00:16:56;17.77;;;12.30;;
48002;SDS011;33768;48.578;11.574;2023-03-01T00:20:00;19.40;;;12.30;;
48002;SDS011;33768;48.578;11.574;2023-03-01T00:23:04;19.23;;;12.20;;
48002;SDS011;33768;48.578;11.574;2023-03-01T00:26:10;20.33;;;11.63;;
48002;SDS011;33768;48.578;11.574;2023-03-01T00:29:18;17.30;;;11.57;;
48002;SDS011;33768;48.578;11.574;2023-03-01T00:32:25;18.77;;;12.20;;
48002;SDS011;33768;48.578;11.574;2023-03-01T00:35:31;22.17;;;13.13;;
48002;SDS011;33768;48.578;11.574;2023-03-01T00:38:40;21.23;;;12.27;;
48002;SDS011;33768;48.578;11.574;2023-03-01T00:41:46;20.37;;;12.77;;
48002;SDS011;33768;48.578;11.574;2023-03-01T00:44:50;18.60;;;12.37;;
48002;SDS011;33768;48.578;11.574;2023-03-01T00:47:56;18.27;;;11.80;;
48002;SDS011;33768;48.578;11.574;2023-03-01T00:51:05;18.47;;;11.53;;
48002;SDS011;33768;48.578;11.574;2023-03-01T00:54:10;18.63;;;11.77;;
48002;SDS011;33768;48.578;11.574;2023-03-01T00:57:14;18.00;;;12.07;;
48002;SDS011;33768;48.578;11.574;2023-03-01T01:00:19;19.33;;;11.73;;
48002;SDS011;33768;48.578;11.574;2023-03-01T01:03:25;19.47;;;12.50;;
48002;SDS011;33768;48.578;11.574;2023-03-01T01:06:30;19.17;;;12.27;;
48002;SDS011;33768;48.578;11.574;2023-03-01T01:09:36;17.00;;;11.53;;
48002;SDS011;33768;48.578;11.574;2023-03-01T01:12:40;19.60;;;12.37;;
48002;SDS011;33768;48.578;11.574;2023-03-01T01:15:45;21.07;;;12.20;;
48002;SDS011;33768;48.578;11.574;2023-03-01T01:18:49;20.63;;;11.77;;
48002;SDS011;33768;48.578;11.574;2023-03-01T01:21:55;19.43;;;11.73;;
48002;SDS011;33768;48.578;11.574;2023-03-01T01:25:00;18.97;;;12.57;;
48002;SDS011;33768;48.578;11.574;2023-03-01T01:28:04;20.43;;;11.73;;
48002;SDS011;33768;48.578;11.574;2023-03-01T01:31:09;20.47;;;13.20;;
48002;SDS011;33768;48.578;11.574;2023-03-01T01:34:14;18.33;;;11.73;;
48002;SDS011;33768;48.578;11.574;2023-03-01T01:37:20;18.70;;;11.83;;
48002;SDS011;33768;48.578;11.574;2023-03-01T01:40:25;18.70;;;12.27;;
48002;SDS011;33768;48.578;11.574;2023-03-01T01:43:34;18.03;;;11.73;;
48002;SDS011;33768;48.578;11.574;2023-03-01T01:50:03;20.90;;;12.77;;
48002;SDS011;33768;48.578;11.574;2023-03-01T01:53:37;17.57;;;12.03;;
48002;SDS011;33768;48.578;11.574;2023-03-01T01:56:44;20.47;;;12.57;;
48002;SDS011;33768;48.578;11.574;2023-03-01T01:59:58;20.60;;;13.00;;
48002;SDS011;33768;48.578;11.574;2023-03-01T02:03:18;21.10;;;12.73;;
48002;SDS011;33768;48.578;11.574;2023-03-01T02:06:29;20.17;;;12.13;;
48002;SDS011;33768;48.578;11.574;2023-03-01T02:09:54;18.10;;;11.17;;
48002;SDS011;33768;48.578;11.574;2023-03-01T02:13:09;19.07;;;12.40;;
48002;SDS011;33768;48.578;11.574;2023-03-01T02:16:14;21.33;;;12.20;;
48002;SDS011;33768;48.578;11.574;2023-03-01T02:19:26;19.53;;;12.00;;
48002;SDS011;33768;48.578;11.574;2023-03-01T02:22:43;18.93;;;12.33;;
48002;SDS011;33768;48.578;11.574;2023-03-01T02:25:57;18.80;;;11.53;;
48002;SDS011;33768;48.578;11.574;2023-03-01T02:29:03;20.73;;;12.47;;
48002;SDS011;33768;48.578;11.574;2023-03-01T02:32:09;21.67;;;12.20;;
48002;SDS011;33768;48.578;11.574;2023-03-01T02:35:16;19.33;;;11.53;;
48002;SDS011;33768;48.578;11.574;2023-03-01T02:38:22;18.40;;;11.93;;
48002;SDS011;33768;48.578;11.574;2023-03-01T02:41:32;19.33;;;12.00;;
48002;SDS011;33768;48.578;11.574;2023-03-01T02:44:40;23.00;;;13.10;;
48002;SDS011;33768;48.578;11.574;2023-03-01T02:47:44;21.17;;;12.63;;
48002;SDS011;33768;48.578;11.574;2023-03-01T02:50:53;20.33;;;12.43;;
48002;SDS011;33768;48.578;11.574;2023-03-01T02:57:47;19.40;;;12.13;;
48002;SDS011;33768;48.578;11.574;2023-03-01T03:00:55;22.90;;;11.93;;
48002;SDS011;33768;48.578;11.574;2023-03-01T03:04:00;20.57;;;12.53;;
48002;SDS011;33768;48.578;11.574;2023-03-01T03:07:05;20.43;;;13.00;;
48002;SDS011;33768;48.578;11.574;2023-03-01T03:10:13;21.50;;;13.07;;
48002;SDS011;33768;48.578;11.574;2023-03-01T03:13:19;21.60;;;13.87;;
48002;SDS011;33768;48.578;11.574;2023-03-01T03:16:23;20.57;;;12.67;;
48002;SDS011;33768;48.578;11.574;2023-03-01T03:19:28;22.20;;;13.47;;
48002;SDS011;33768;48.578;11.574;2023-03-01T03:22:32;21.50;;;13.13;;
48002;SDS011;33768;48.578;11.574;2023-03-01T03:25:37;20.63;;;12.73;;
48002;SDS011;33768;48.578;11.574;2023-03-01T03:28:42;20.60;;;12.80;;
48002;SDS011;33768;48.578;11.574;2023-03-01T03:31:46;20.77;;;12.87;;
48002;SDS011;33768;48.578;11.574;2023-03-01T03:34:50;20.73;;;12.67;;
48002;SDS011;33768;48.578;11.574;2023-03-01T03:37:54;19.50;;;11.87;;
48002;SDS011;33768;48.578;11.574;2023-03-01T03:41:07;21.80;;;12.57;;
48002;SDS011;33768;48.578;11.574;2023-03-01T03:44:12;21.57;;;13.23;;
48002;SDS011;33768;48.578;11.574;2023-03-01T03:47:16;21.53;;;12.90;;
48002;SDS011;33768;48.578;11.574;2023-03-01T03:50:20;21.67;;;13.03;;
48002;SDS011;33768;48.578;11.574;2023-03-01T03:53:25;21.30;;;12.90;;
48002;SDS011;33768;48.578;11.574;2023-03-01T03:56:31;21.57;;;12.63;;
48002;SDS011;33768;48.578;11.574;2023-03-01T03:59:35;21.63;;;13.20;;
48002;SDS011;33768;48.578;11.574;2023-03-01T04:02:40;22.07;;;13.23;;
48002;SDS011;33768;48.578;11.574;2023-03-01T04:05:44;24.90;;;13.33;;
48002;SDS011;33768;48.578;11.574;2023-03-01T04:08:49;21.77;;;13.50;;
48002;SDS011;33768;48.578;11.574;2023-03-01T04:11:54;21.77;;;13.23;;
48002;SDS011;33768;48.578;11.574;2023-03-01T04:14:58;20.07;;;12.90;;
48002;SDS011;33768;48.578;11.574;2023-03-01T04:18:03;21.33;;;12.70;;
48002;SDS011;33768;48.578;11.574;2023-03-01T04:21:09;20.47;;;13.33;;
48002;SDS011;33768;48.578;11.574;2023-03-01T04:24:15;22.93;;;13.07;;
48002;SDS011;33768;48.578;11.574;2023-03-01T04:27:19;23.33;;;13.40;;
48002;SDS011;33768;48.578;11.574;2023-03-01T04:30:23;21.83;;;13.90;;
48002;SDS011;33768;48.578;11.574;2023-03-01T04:33:29;21.57;;;13.37;;
48002;SDS011;33768;48.578;11.574;2023-03-01T04:36:33;22.23;;;13.27;;
48002;SDS011;33768;48.578;11.574;2023-03-01T04:39:41;31.97;;;13.30;;
48002;SDS011;33768;48.578;11.574;2023-03-01T04:42:48;20.87;;;12.90;;
48002;SDS011;33768;48.578;11.574;2023-03-01T04:45:52;19.77;;;12.90;;
48002;SDS011;33768;48.578;11.574;2023-03-01T04:48:57;22.00;;;12.93;;
48002;SDS011;33768;48.578;11.574;2023-03-01T04:52:01;26.17;;;14.83;;
48002;SDS011;33768;48.578;11.574;2023-03-01T04:55:06;25.67;;;13.77;;
48002;SDS011;33768;48.578;11.574;2023-03-01T04:58:10;23.80;;;14.00;;
48002;SDS011;33768;48.578;11.574;2023-03-01T05:01:16;21.77;;;12.80;;
48002;SDS011;33768;48.578;11.574;2023-03-01T05:04:23;24.33;;;14.07;;
48002;SDS011;33768;48.578;11.574;2023-03-01T05:07:28;23.43;;;14.70;;
48002;SDS011;33768;48.578;11.574;2023-03-01T05:10:33;27.30;;;14.23;;
48002;SDS011;33768;48.578;11.574;2023-03-01T05:13:39;23.70;;;13.53;;
48002;SDS011;33768;48.578;11.574;2023-03-01T05:16:44;22.60;;;13.60;;
48002;SDS011;33768;48.578;11.574;2023-03-01T05:19:47;24.20;;;13.80;;
48002;SDS011;33768;48.578;11.574;2023-03-01T05:22:51;22.87;;;13.67;;
48002;SDS011;33768;48.578;11.574;2023-03-01T05:25:59;22.20;;;13.60;;
48002;SDS011;33768;48.578;11.574;2023-03-01T05:29:03;24.63;;;13.73;;
48002;SDS011;33768;48.578;11.574;2023-03-01T05:32:07;25.87;;;15.17;;
48002;SDS011;33768;48.578;11.574;2023-03-01T05:35:13;25.97;;;14.73;;
48002;SDS011;33768;48.578;11.574;2023-03-01T05:38:18;22.50;;;14.17;;
48002;SDS011;33768;48.578;11.574;2023-03-01T05:41:24;25.67;;;15.20;;
48002;SDS011;33768;48.578;11.574;2023-03-01T05:44:28;28.87;;;14.70;;
48002;SDS011;33768;48.578;11.574;2023-03-01T05:47:33;24.13;;;14.80;;
48002;SDS011;33768;48.578;11.574;2023-03-01T05:50:39;24.73;;;15.10;;
48002;SDS011;33768;48.578;11.574;2023-03-01T05:53:45;28.90;;;15.67;;
48002;SDS011;33768;48.578;11.574;2023-03-01T05:56:49;23.53;;;15.00;;
48002;SDS011;33768;48.578;11.574;2023-03-01T05:59:53;30.07;;;16.03;;
48002;SDS011;33768;48.578;11.574;2023-03-01T06:02:57;25.50;;;15.10;;
48002;SDS011;33768;48.578;11.574;2023-03-01T06:06:02;28.07;;;16.57;;
48002;SDS011;33768;48.578;11.574;2023-03-01T06:09:07;26.73;;;15.23;;
48002;SDS011;33768;48.578;11.574;2023-03-01T06:12:13;28.60;;;15.77;;
48002;SDS011;33768;48.578;11.574;2023-03-01T06:15:17;26.60;;;16.13;;
48002;SDS011;33768;48.578;11.574;2023-03-01T06:18:21;27.77;;;15.20;;
48002;SDS011;33768;48.578;11.574;2023-03-01T06:21:25;26.43;;;14.87;;
48002;SDS011;33768;48.578;11.574;2023-03-01T06:24:30;28.27;;;16.37;;
48002;SDS011;33768;48.578;11.574;2023-03-01T06:27:34;31.43;;;15.80;;
48002;SDS011;33768;48.578;11.574;2023-03-01T06:30:38;27.43;;;15.67;;
48002;SDS011;33768;48.578;11.574;2023-03-01T06:33:42;25.70;;;15.33;;
48002;SDS011;33768;48.578;11.574;2023-03-01T06:36:48;26.23;;;15.50;;
48002;SDS011;33768;48.578;11.574;2023-03-01T06:39:52;30.33;;;15.87;;
48002;SDS011;33768;48.578;11.574;2023-03-01T06:42:57;24.77;;;15.07;;
48002;SDS011;33768;48.578;11.574;2023-03-01T06:46:03;23.67;;;14.57;;
48002;SDS011;33768;48.578;11.574;2023-03-01T06:49:09;31.50;;;16.90;;
48002;SDS011;33768;48.578;11.574;2023-03-01T06:52:13;40.23;;;21.90;;
48002;SDS011;33768;48.578;11.574;2023-03-01T06:55:20;33.27;;;18.20;;
48002;SDS011;33768;48.578;11.574;2023-03-01T06:58:24;33.40;;;17.33;;
48002;SDS011;33768;48.578;11.574;2023-03-01T07:01:30;27.87;;;16.40;;
48002;SDS011;33768;48.578;11.574;2023-03-01T07:04:35;28.43;;;15.77;;
48002;SDS011;33768;48.578;11.574;2023-03-01T07:07:40;34.50;;;18.37;;
48002;SDS011;33768;48.578;11.574;2023-03-01T07:10:48;36.00;;;18.10;;
48002;SDS011;33768;48.578;11.574;2023-03-01T07:14:02;32.70;;;16.77;;
48002;SDS011;33768;48.578;11.574;2023-03-01T07:17:07;29.20;;;16.33;;
48002;SDS011;33768;48.578;11.574;2023-03-01T07:20:11;27.00;;;16.07;;
48002;SDS011;33768;48.578;11.574;2023-03-01T07:23:16;24.03;;;15.77;;
48002;SDS011;33768;48.578;11.574;2023-03-01T07:26:20;27.80;;;15.67;;
48002;SDS011;33768;48.578;11.574;2023-03-01T07:29:24;24.27;;;14.57;;
48002;SDS011;33768;48.578;11.574;2023-03-01T07:32:29;24.00;;;14.97;;
48002;SDS011;33768;48.578;11.574;2023-03-01T07:35:33;26.50;;;15.30;;
48002;SDS011;33768;48.578;11.574;2023-03-01T07:38:54;25.73;;;14.53;;
48002;SDS011;33768;48.578;11.574;2023-03-01T07:42:00;22.67;;;13.80;;
48002;SDS011;33768;48.578;11.574;2023-03-01T07:45:05;25.60;;;14.83;;
48002;SDS011;33768;48.578;11.574;2023-03-01T07:48:10;25.63;;;14.17;;
48002;SDS011;33768;48.578;11.574;2023-03-01T07:51:14;22.50;;;14.67;;
48002;SDS011;33768;48.578;11.574;2023-03-01T07:54:18;21.90;;;14.03;;
48002;SDS011;33768;48.578;11.574;2023-03-01T07:57:22;21.87;;;13.30;;
48002;SDS011;33768;48.578;11.574;2023-03-01T08:00:29;23.10;;;13.97;;
48002;SDS011;33768;48.578;11.574;2023-03-01T08:03:34;27.20;;;14.57;;
48002;SDS011;33768;48.578;11.574;2023-03-01T08:06:39;25.23;;;14.80;;
48002;SDS011;33768;48.578;11.574;2023-03-01T08:09:43;23.70;;;13.93;;
48002;SDS011;33768;48.578;11.574;2023-03-01T08:12:50;25.53;;;14.80;;
48002;SDS011;33768;48.578;11.574;2023-03-01T08:16:00;20.67;;;13.97;;
48002;SDS011;33768;48.578;11.574;2023-03-01T08:19:06;22.47;;;13.63;;
48002;SDS011;33768;48.578;11.574;2023-03-01T08:22:13;25.43;;;14.33;;
48002;SDS011;33768;48.578;11.574;2023-03-01T08:25:19;20.37;;;12.80;;
48002;SDS011;33768;48.578;11.574;2023-03-01T08:28:23;21.10;;;13.30;;
48002;SDS011;33768;48.578;11.574;2023-03-01T08:31:29;21.63;;;13.73;;
48002;SDS011;33768;48.578;11.574;2023-03-01T08:34:35;23.53;;;14.40;;
48002;SDS011;33768;48.578;11.574;2023-03-01T08:37:40;22.00;;;12.63;;
48002;SDS011;33768;48.578;11.574;2023-03-01T08:40:44;22.43;;;12.67;;
48002;SDS011;33768;48.578;11.574;2023-03-01T08:43:48;21.97;;;12.97;;
48002;SDS011;33768;48.578;11.574;2023-03-01T08:46:54;22.83;;;12.73;;
48002;SDS011;33768;48.578;11.574;2023-03-01T08:50:02;19.57;;;12.40;;
48002;SDS011;33768;48.578;11.574;2023-03-01T08:53:11;20.87;;;12.87;;
48002;SDS011;33768;48.578;11.574;2023-03-01T08:56:22;19.60;;;12.80;;
48002;SDS011;33768;48.578;11.574;2023-03-01T08:59:26;21.63;;;12.57;;
48002;SDS011;33768;48.578;11.574;2023-03-01T09:02:47;21.83;;;12.57;;
48002;SDS011;33768;48.578;11.574;2023-03-01T09:06:00;17.97;;;12.03;;
48002;SDS011;33768;48.578;11.574;2023-03-01T09:09:15;23.53;;;12.93;;
48002;SDS011;33768;48.578;11.574;2023-03-01T09:12:23;21.60;;;12.67;;
48002;SDS011;33768;48.578;11.574;2023-03-01T09:15:30;18.53;;;11.60;;
48002;SDS011;33768;48.578;11.574;2023-03-01T09:18:37;20.77;;;13.07;;
48002;SDS011;33768;48.578;11.574;2023-03-01T09:21:42;20.53;;;11.97;;
48002;SDS011;33768;48.578;11.574;2023-03-01T09:24:55;21.27;;;12.37;;
48002;SDS011;33768;48.578;11.574;2023-03-01T09:28:02;19.67;;;11.60;;
48002;SDS011;33768;48.578;11.574;2023-03-01T09:31:07;21.60;;;12.90;;
48002;SDS011;33768;48.578;11.574;2023-03-01T09:34:12;20.80;;;12.57;;
48002;SDS011;33768;48.578;11.574;2023-03-01T09:37:19;17.23;;;12.13;;
48002;SDS011;33768;48.578;11.574;2023-03-01T09:40:24;19.77;;;12.27;;
48002;SDS011;33768;48.578;11.574;2023-03-01T09:46:44;15.63;;;11.33;;
48002;SDS011;33768;48.578;11.574;2023-03-01T09:49:54;22.83;;;12.37;;
48002;SDS011;33768;48.578;11.574;2023-03-01T09:53:05;18.80;;;12.10;;
48002;SDS011;33768;48.578;11.574;2023-03-01T09:56:22;19.13;;;11.37;;
48002;SDS011;33768;48.578;11.574;2023-03-01T09:59:37;22.47;;;11.67;;
48002;SDS011;33768;48.578;11.574;2023-03-01T10:06:20;20.17;;;13.37;;
48002;SDS011;33768;48.578;11.574;2023-03-01T10:09:27;26.43;;;13.13;;
48002;SDS011;33768;48.578;11.574;2023-03-01T10:12:37;20.30;;;13.57;;
48002;SDS011;33768;48.578;11.574;2023-03-01T10:15:47;20.73;;;12.50;;
48002;SDS011;33768;48.578;11.574;2023-03-01T10:18:59;27.47;;;13.33;;
48002;SDS011;33768;48.578;11.574;2023-03-01T10:22:19;19.43;;;12.33;;
48002;SDS011;33768;48.578;11.574;2023-03-01T10:30:43;20.67;;;13.33;;
48002;SDS011;33768;48.578;11.574;2023-03-01T10:39:22;19.60;;;12.63;;
48002;SDS011;33768;48.578;11.574;2023-03-01T10:42:31;19.83;;;12.47;;
48002;SDS011;33768;48.578;11.574;2023-03-01T10:45:38;37.13;;;14.23;;
48002;SDS011;33768;48.578;11.574;2023-03-01T10:48:43;18.87;;;12.73;;
48002;SDS011;33768;48.578;11.574;2023-03-01T10:51:47;20.87;;;13.50;;
48002;SDS011;33768;48.578;11.574;2023-03-01T10:54:58;23.27;;;14.03;;
48002;SDS011;33768;48.578;11.574;2023-03-01T10:58:11;19.60;;;12.50;;
48002;SDS011;33768;48.578;11.574;2023-03-01T11:02:16;22.23;;;12.57;;
48002;SDS011;33768;48.578;11.574;2023-03-01T11:05:52;20.40;;;12.63;;
48002;SDS011;33768;48.578;11.574;2023-03-01T11:09:33;18.10;;;12.90;;
48002;SDS011;33768;48.578;11.574;2023-03-01T11:12:44;22.10;;;13.27;;
48002;SDS011;33768;48.578;11.574;2023-03-01T11:19:26;17.77;;;12.57;;
48002;SDS011;33768;48.578;11.574;2023-03-01T11:22:30;18.17;;;13.20;;
48002;SDS011;33768;48.578;11.574;2023-03-01T11:25:37;20.20;;;13.03;;
48002;SDS011;33768;48.578;11.574;2023-03-01T11:28:43;20.10;;;11.87;;
48002;SDS011;33768;48.578;11.574;2023-03-01T11:31:52;17.53;;;11.53;;
48002;SDS011;33768;48.578;11.574;2023-03-01T11:35:14;21.43;;;12.30;;
48002;SDS011;33768;48.578;11.574;2023-03-01T11:38:30;17.50;;;12.23;;
48002;SDS011;33768;48.578;11.574;2023-03-01T11:41:38;18.23;;;11.80;;
48002;SDS011;33768;48.578;11.574;2023-03-01T11:44:44;16.80;;;11.83;;
48002;SDS011;33768;48.578;11.574;2023-03-01T11:51:09;18.17;;;12.07;;
48002;SDS011;33768;48.578;11.574;2023-03-01T12:01:41;21.03;;;12.63;;
48002;SDS011;33768;48.578;11.574;2023-03-01T12:05:35;20.00;;;12.37;;
48002;SDS011;33768;48.578;11.574;2023-03-01T12:09:17;17.70;;;12.83;;
48002;SDS011;33768;48.578;11.574;2023-03-01T12:13:23;19.33;;;12.83;;
48002;SDS011;33768;48.578;11.574;2023-03-01T12:17:40;19.90;;;12.90;;
48002;SDS011;33768;48.578;11.574;2023-03-01T12:24:41;18.33;;;12.07;;
48002;SDS011;33768;48.578;11.574;2023-03-01T12:31:21;20.13;;;12.33;;
48002;SDS011;33768;48.578;11.574;2023-03-01T12:51:24;18.60;;;12.37;;
48002;SDS011;33768;48.578;11.574;2023-03-01T12:54:33;17.17;;;12.23;;
48002;SDS011;33768;48.578;11.574;2023-03-01T12:57:41;19.27;;;12.40;;
48002;SDS011;33768;48.578;11.574;2023-03-01T13:01:03;17.13;;;12.10;;
48002;SDS011;33768;48.578;11.574;2023-03-01T13:07:45;17.67;;;11.43;;
48002;SDS011;33768;48.578;11.574;2023-03-01T13:11:06;16.00;;;11.40;;
48002;SDS011;33768;48.578;11.574;2023-03-01T13:17:33;18.30;;;11.63;;
48002;SDS011;33768;48.578;11.574;2023-03-01T13:20:47;17.60;;;11.43;;
48002;SDS011;33768;48.578;11.574;2023-03-01T13:23:56;16.17;;;10.47;;
48002;SDS011;33768;48.578;11.574;2023-03-01T13:33:43;15.03;;;10.40;;
48002;SDS011;33768;48.578;11.574;2023-03-01T13:36:50;15.20;;;11.17;;
48002;SDS011;33768;48.578;11.574;2023-03-01T13:39:56;15.63;;;10.80;;
48002;SDS011;33768;48.578;11.574;2023-03-01T13:43:23;16.53;;;10.80;;
48002;SDS011;33768;48.578;11.574;2023-03-01T13:50:02;15.47;;;11.20;;
48002;SDS011;33768;48.578;11.574;2023-03-01T13:53:10;15.27;;;10.57;;
48002;SDS011;33768;48.578;11.574;2023-03-01T13:56:24;20.13;;;11.27;;
48002;SDS011;33768;48.578;11.574;2023-03-01T13:59:31;15.23;;;10.93;;
48002;SDS011;33768;48.578;11.574;2023-03-01T14:02:35;16.73;;;10.83;;
48002;SDS011;33768;48.578;11.574;2023-03-01T14:05:41;15.97;;;10.00;;
48002;SDS011;33768;48.578;11.574;2023-03-01T14:08:48;18.17;;;11.73;;
48002;SDS011;33768;48.578;11.574;2023-03-01T14:15:45;15.40;;;9.77;;
48002;SDS011;33768;48.578;11.574;2023-03-01T14:22:29;12.83;;;9.70;;
48002;SDS011;33768;48.578;11.574;2023-03-01T14:25:37;16.00;;;10.00;;
48002;SDS011;33768;48.578;11.574;2023-03-01T14:28:44;15.27;;;10.33;;
48002;SDS011;33768;48.578;11.574;2023-03-01T14:31:48;17.43;;;11.07;;
48002;SDS011;33768;48.578;11.574;2023-03-01T14:34:53;18.37;;;9.80;;
48002;SDS011;33768;48.578;11.574;2023-03-01T14:37:58;19.20;;;11.20;;
48002;SDS011;33768;48.578;11.574;2023-03-01T14:41:09;15.93;;;10.60;;
48002;SDS011;33768;48.578;11.574;2023-03-01T14:44:21;15.07;;;10.33;;
48002;SDS011;33768;48.578;11.574;2023-03-01T14:47:30;17.40;;;11.37;;
48002;SDS011;33768;48.578;11.574;2023-03-01T14:50:40;18.27;;;10.53;;
48002;SDS011;33768;48.578;11.574;2023-03-01T14:53:46;16.80;;;10.73;;
48002;SDS011;33768;48.578;11.574;2023-03-01T14:56:51;16.03;;;10.87;;
48002;SDS011;33768;48.578;11.574;2023-03-01T14:59:58;17.17;;;10.53;;
48002;SDS011;33768;48.578;11.574;2023-03-01T15:03:08;14.67;;;10.33;;
48002;SDS011;33768;48.578;11.574;2023-03-01T15:06:19;16.30;;;10.17;;
48002;SDS011;33768;48.578;11.574;2023-03-01T15:12:56;17.97;;;10.13;;
48002;SDS011;33768;48.578;11.574;2023-03-01T15:21:37;16.37;;;10.50;;
48002;SDS011;33768;48.578;11.574;2023-03-01T15:24:54;18.60;;;10.37;;
48002;SDS011;33768;48.578;11.574;2023-03-01T15:28:02;15.60;;;10.90;;
48002;SDS011;33768;48.578;11.574;2023-03-01T15:31:18;14.47;;;9.60;;
48002;SDS011;33768;48.578;11.574;2023-03-01T15:34:32;17.67;;;10.80;;
48002;SDS011;33768;48.578;11.574;2023-03-01T15:37:45;20.77;;;11.43;;
48002;SDS011;33768;48.578;11.574;2023-03-01T15:40:54;16.27;;;10.73;;
48002;SDS011;33768;48.578;11.574;2023-03-01T15:43:59;26.53;;;12.43;;
48002;SDS011;33768;48.578;11.574;2023-03-01T15:47:22;19.90;;;12.73;;
48002;SDS011;33768;48.578;11.574;2023-03-01T15:50:31;16.47;;;11.70;;
48002;SDS011;33768;48.578;11.574;2023-03-01T15:53:37;19.80;;;12.43;;
48002;SDS011;33768;48.578;11.574;2023-03-01T15:56:41;18.53;;;12.73;;
48002;SDS011;33768;48.578;11.574;2023-03-01T15:59:45;15.93;;;11.13;;
48002;SDS011;33768;48.578;11.574;2023-03-01T16:02:49;17.63;;;11.03;;
48002;SDS011;33768;48.578;11.574;2023-03-01T16:05:53;18.37;;;12.03;;
48002;SDS011;33768;48.578;11.574;2023-03-01T16:08:58;18.83;;;11.87;;
48002;SDS011;33768;48.578;11.574;2023-03-01T16:12:02;18.87;;;11.93;;
48002;SDS011;33768;48.578;11.574;2023-03-01T16:15:20;17.53;;;12.27;;
48002;SDS011;33768;48.578;11.574;2023-03-01T16:18:32;19.47;;;12.27;;
48002;SDS011;33768;48.578;11.574;2023-03-01T16:21:36;20.27;;;12.77;;
48002;SDS011;33768;48.578;11.574;2023-03-01T16:24:41;20.80;;;12.80;;
48002;SDS011;33768;48.578;11.574;2023-03-01T16:27:47;19.87;;;13.17;;
48002;SDS011;33768;48.578;11.574;2023-03-01T16:30:53;24.17;;;15.27;;
48002;SDS011;33768;48.578;11.574;2023-03-01T16:33:58;43.23;;;22.53;;
48002;SDS011;33768;48.578;11.574;2023-03-01T16:37:03;24.90;;;14.17;;
48002;SDS011;33768;48.578;11.574;2023-03-01T16:40:15;20.40;;;13.10;;
48002;SDS011;33768;48.578;11.574;2023-03-01T16:43:22;21.97;;;14.30;;
48002;SDS011;33768;48.578;11.574;2023-03-01T16:46:26;27.20;;;16.83;;
48002;SDS011;33768;48.578;11.574;2023-03-01T16:49:32;74.53;;;37.13;;
48002;SDS011;33768;48.578;11.574;2023-03-01T16:52:36;23.67;;;14.77;;
48002;SDS011;33768;48.578;11.574;2023-03-01T16:55:41;27.63;;;15.03;;
48002;SDS011;33768;48.578;11.574;2023-03-01T16:58:49;24.00;;;13.87;;
48002;SDS011;33768;48.578;11.574;2023-03-01T17:01:53;23.17;;;13.23;;
48002;SDS011;33768;48.578;11.574;2023-03-01T17:04:57;20.47;;;14.10;;
48002;SDS011;33768;48.578;11.574;2023-03-01T17:08:01;23.27;;;13.90;;
48002;SDS011;33768;48.578;11.574;2023-03-01T17:11:07;28.97;;;17.63;;
48002;SDS011;33768;48.578;11.574;2023-03-01T17:14:14;26.03;;;14.43;;
48002;SDS011;33768;48.578;11.574;2023-03-01T17:17:19;26.83;;;13.73;;
48002;SDS011;33768;48.578;11.574;2023-03-01T17:20:24;28.17;;;14.97;;
48002;SDS011;33768;48.578;11.574;2023-03-01T17:23:28;21.67;;;13.83;;
48002;SDS011;33768;48.578;11.574;2023-03-01T17:26:33;24.43;;;14.63;;
48002;SDS011;33768;48.578;11.574;2023-03-01T17:29:38;27.33;;;16.03;;
48002;SDS011;33768;48.578;11.574;2023-03-01T17:32:44;25.27;;;15.40;;
48002;SDS011;33768;48.578;11.574;2023-03-01T17:35:48;26.57;;;14.93;;
48002;SDS011;33768;48.578;11.574;2023-03-01T17:38:53;23.77;;;15.37;;
48002;SDS011;33768;48.578;11.574;2023-03-01T17:41:57;23.33;;;15.33;;
48002;SDS011;33768;48.578;11.574;2023-03-01T17:45:01;36.47;;;18.10;;
48002;SDS011;33768;48.578;11.574;2023-03-01T17:48:05;27.27;;;15.20;;
48002;SDS011;33768;48.578;11.574;2023-03-01T17:51:10;23.77;;;13.93;;
48002;SDS011;33768;48.578;11.574;2023-03-01T17:54:15;21.57;;;13.53;;
48002;SDS011;33768;48.578;11.574;2023-03-01T17:57:19;21.97;;;13.57;;
48002;SDS011;33768;48.578;11.574;2023-03-01T18:00:23;22.97;;;14.23;;
48002;SDS011;33768;48.578;11.574;2023-03-01T18:03:28;23.10;;;13.50;;
48002;SDS011;33768;48.578;11.574;2023-03-01T18:06:32;22.67;;;14.57;;
48002;SDS011;33768;48.578;11.574;2023-03-01T18:09:36;26.97;;;15.07;;
48002;SDS011;33768;48.578;11.574;2023-03-01T18:12:40;25.97;;;14.80;;
48002;SDS011;33768;48.578;11.574;2023-03-01T18:15:44;27.53;;;14.93;;
48002;SDS011;33768;48.578;11.574;2023-03-01T18:18:51;25.27;;;16.07;;
48002;SDS011;33768;48.578;11.574;2023-03-01T18:21:56;25.13;;;15.13;;
48002;SDS011;33768;48.578;11.574;2023-03-01T18:25:01;25.93;;;14.60;;
48002;SDS011;33768;48.578;11.574;2023-03-01T18:28:05;26.00;;;15.20;;
48002;SDS011;33768;48.578;11.574;2023-03-01T18:31:09;25.50;;;15.13;;
48002;SDS011;33768;48.578;11.574;2023-03-01T18:34:13;25.73;;;15.00;;
48002;SDS011;33768;48.578;11.574;2023-03-01T18:37:17;25.37;;;13.67;;
48002;SDS011;33768;48.578;11.574;2023-03-01T18:40:22;27.20;;;16.33;;
48002;SDS011;33768;48.578;11.574;2023-03-01T18:43:26;24.53;;;14.80;;
48002;SDS011;33768;48.578;11.574;2023-03-01T18:46:31;25.57;;;14.87;;
48002;SDS011;33768;48.578;11.574;2023-03-01T18:49:36;23.33;;;14.80;;
48002;SDS011;33768;48.578;11.574;2023-03-01T18:52:40;26.97;;;15.07;;
48002;SDS011;33768;48.578;11.574;2023-03-01T18:55:44;25.20;;;15.60;;
48002;SDS011;33768;48.578;11.574;2023-03-01T18:58:48;24.23;;;14.90;;
48002;SDS011;33768;48.578;11.574;2023-03-01T19:01:53;27.40;;;16.03;;
48002;SDS011;33768;48.578;11.574;2023-03-01T19:04:57;24.33;;;14.50;;
48002;SDS011;33768;48.578;11.574;2023-03-01T19:08:01;28.63;;;16.77;;
48002;SDS011;33768;48.578;11.574;2023-03-01T19:11:05;23.57;;;15.50;;
48002;SDS011;33768;48.578;11.574;2023-03-01T19:14:10;28.67;;;16.67;;
48002;SDS011;33768;48.578;11.574;2023-03-01T19:17:14;31.20;;;15.83;;
48002;SDS011;33768;48.578;11.574;2023-03-01T19:20:18;29.80;;;15.80;;
48002;SDS011;33768;48.578;11.574;2023-03-01T19:23:23;26.07;;;15.13;;
48002;SDS011;33768;48.578;11.574;2023-03-01T19:26:27;24.33;;;15.07;;
48002;SDS011;33768;48.578;11.574;2023-03-01T19:29:31;27.83;;;15.90;;
48002;SDS011;33768;48.578;11.574;2023-03-01T19:32:35;24.40;;;14.97;;
48002;SDS011;33768;48.578;11.574;2023-03-01T19:35:40;25.23;;;15.53;;
48002;SDS011;33768;48.578;11.574;2023-03-01T19:38:44;25.37;;;16.20;;